Flight Track Log - Related Links

Times and Time Zones

All times are in EDT time to prevent confusion due to time zone crossing. See the SWA1532 flight status page for this flight to view local times or setup timezone preferences in your user account.

Time Position Orientation Groundspeed Altitude Reporting Facility
EDT Latitude Longitude Course Direction KTS MPH feet Rate Location/Type
Thu 11:42:20 AM 47.4353 -122.3103 178° South 162 186 1,100  Level Seattle Center
Thu 11:43:02 AM 47.3969 -122.3086 178° South 167 192 2,500 2,791 Climbing Seattle Center
Thu 11:45:55 AM 47.1931 -122.2761 161° South 293 337 11,100 2,872 Climbing Seattle Center
Thu 11:46:56 AM 47.1178 -122.1947 144° Southeast 341 392 13,700 2,772 Climbing Seattle Center
Thu 11:48:59 AM 46.9242 -122.1089 163° South 356 410 19,600 2,739 Climbing Seattle Center
Thu 11:50:00 AM 46.8206 -122.0686 165° South 380 437 22,100 2,361 Climbing Seattle Center
Thu 11:51:01 AM 46.7131 -122.0267 165° South 398 458 24,400 2,016 Climbing Seattle Center
Thu 11:52:02 AM 46.6011 -121.9839 165° South 413 475 26,200 1,721 Climbing Seattle Center
Thu 11:53:03 AM 46.4833 -121.9447 167° South 431 496 27,900 1,623 Climbing Seattle Center
Thu 11:54:04 AM 46.3606 -121.9417 179° South 437 503 29,500 1,561 Climbing Seattle Center
Thu 11:55:06 AM 46.2347 -121.9306 177° South 448 516 31,100 1,854 Climbing Seattle Center
Thu 11:56:07 AM 46.1011 -121.8808 166° South 455 524 33,300 1,820 Climbing Seattle Center
Thu 11:57:08 AM 45.9789 -121.8397 167° South 455 524 34,800 1,328 Climbing Seattle Center
Thu 11:58:09 AM 45.8556 -121.7964 166° South 456 525 36,000 1,230 Climbing Seattle Center
Thu 11:59:10 AM 45.7319 -121.7564 167° South 457 526 37,300 1,171 Climbing Seattle Center
Thu 12:00:12 PM 45.6075 -121.7131 166° South 461 531 38,400 554 Climbing Seattle Center
Thu 12:02:14 PM 45.3364 -121.6233 167° South 461 531 39,000 148 Climbing Seattle Center
Thu 12:04:16 PM 45.0939 -121.5411 167° South 453 521 39,000  Level Seattle Center
Thu 12:05:18 PM 44.9708 -121.5014 167° South 457 526 39,000  Level Seattle Center
Thu 12:08:21 PM 44.5992 -121.3794 164° South 455 524 39,000  Level Seattle Center
Thu 12:10:24 PM 44.3339 -121.2950 167° South 456 525 39,000  Level Seattle Center
Thu 12:12:26 PM 44.0842 -121.2133 167° South 463 533 39,000  Level Seattle Center
Thu 12:13:28 PM 43.9581 -121.1731 167° South 465 535 39,000  Level Seattle Center
Thu 12:14:29 PM 43.8339 -121.1325 167° South 464 534 39,000  Level Seattle Center
Thu 12:15:30 PM 43.7072 -121.0922 167° South 464 534 39,000  Level Seattle Center
Thu 12:17:33 PM 43.4494 -121.0142 168° South 466 536 39,000  Level Seattle Center
Thu 12:18:35 PM 43.3217 -120.9747 167° South 466 536 39,000  Level Seattle Center
Thu 12:19:36 PM 43.1939 -120.9344 167° South 467 537 39,000  Level Seattle Center
Thu 12:20:37 PM 43.0417 -120.8872 167° South 467 537 39,000  Level Seattle Center
Thu 12:21:39 PM 42.9139 -120.8492 168° South 467 537 39,000  Level Seattle Center
Thu 12:22:40 PM 42.7889 -120.8094 167° South 464 534 39,000  Level Seattle Center
Thu 12:23:42 PM 42.6664 -120.7731 168° South 455 524 39,000  Level Seattle Center
Thu 12:24:43 PM 42.5422 -120.7350 167° South 454 522 39,000  Level Seattle Center
Thu 12:27:09 PM 42.2514 -120.6478 167° South 454 522 39,000  Level Oakland Center
Thu 12:27:47 PM 42.1761 -120.6256 168° South 444 511 39,000  Level Seattle Center
Thu 12:28:49 PM 42.0536 -120.5889 167° South 445 512 39,000  Level Seattle Center
Thu 12:29:50 PM 41.9308 -120.5517 167° South 447 514 39,000  Level Seattle Center
Thu 12:30:52 PM 41.7833 -120.5100 168° South 450 518 39,000  Level Seattle Center
Thu 12:32:55 PM 41.5442 -120.4364 167° South 440 506 39,000  Level Seattle Center
Thu 12:33:56 PM 41.4228 -120.4011 168° South 442 509 39,000  Level Seattle Center
Thu 12:35:59 PM 41.1800 -120.3328 168° South 447 514 39,000  Level Seattle Center
Thu 12:38:02 PM 40.9422 -120.2642 168° South 439 505 39,000  Level Seattle Center
Thu 12:39:29 PM 40.7558 -120.2072 167° South 436 502 39,000  Level Oakland Center
Thu 12:40:31 PM 40.6383 -120.1722 167° South 434 499 39,000  Level Oakland Center
Thu 12:41:32 PM 40.5267 -120.1428 169° South 433 498 39,000  Level Oakland Center
Thu 12:42:34 PM 40.4100 -120.1103 168° South 433 498 39,000  Level Oakland Center
Thu 12:43:36 PM 40.2933 -120.0778 168° South 431 496 39,000  Level Oakland Center
Thu 12:44:37 PM 40.1536 -120.0375 168° South 430 495 39,000  Level Oakland Center
Thu 12:45:39 PM 40.0364 -120.0039 168° South 431 496 39,000  Level Oakland Center
Thu 12:46:41 PM 39.9181 -119.9706 168° South 434 499 39,000  Level Oakland Center
Thu 12:47:42 PM 39.8017 -119.9381 168° South 432 497 39,000  Level Oakland Center
Thu 12:48:44 PM 39.6850 -119.9078 169° South 432 497 39,000  Level Oakland Center
Thu 12:49:45 PM 39.5664 -119.8747 168° South 433 498 39,000  Level Oakland Center
Thu 12:50:47 PM 39.4500 -119.8425 168° South 432 497 39,000  Level Oakland Center
Thu 12:52:50 PM 39.1906 -119.7703 167° South 433 498 39,000  Level Oakland Center
Thu 12:54:48 PM 38.9728 -119.7158 169° South 434 499 39,000  Level Los Angeles Center
Thu 12:55:55 PM 38.8403 -119.6750 167° South 433 498 39,000  Level Oakland Center
Thu 12:56:57 PM 38.7244 -119.6436 168° South 431 496 39,000  Level Oakland Center
Thu 12:57:58 PM 38.5836 -119.6064 168° South 429 494 39,000  Level Oakland Center
Thu 12:59:59 PM 38.3519 -119.5428 168° South 430 495 39,000  Level Los Angeles Center
Thu 01:01:03 PM 38.2417 -119.5156 169° South 429 494 39,000  Level Oakland Center
Thu 01:02:05 PM 38.1231 -119.4836 168° South 430 495 39,000  Level Oakland Center
Thu 01:03:06 PM 37.9822 -119.4456 168° South 430 495 39,000  Level Oakland Center
Thu 01:04:08 PM 37.8639 -119.4144 168° South 432 497 39,000  Level Oakland Center
Thu 01:06:11 PM 37.6317 -119.3547 168° South 426 490 39,000  Level Oakland Center
Thu 01:07:13 PM 37.5242 -119.3269 168° South 425 489 39,000  Level Oakland Center
Thu 01:08:15 PM 37.4083 -119.2967 168° South 425 489 39,000  Level Oakland Center
Thu 01:09:17 PM 37.2694 -119.2603 168° South 425 489 39,000  Level Oakland Center
Thu 01:10:18 PM 37.1528 -119.2308 169° South 425 489 39,000  Level Oakland Center
Thu 01:11:20 PM 37.0344 -119.2000 168° South 430 495 39,000  Level Oakland Center
Thu 01:13:27 PM 36.7983 -119.1381 168° South 430 495 39,000  Level Los Angeles Center
Thu 01:14:25 PM 36.6811 -119.1089 169° South 432 497 39,000  Level Oakland Center
Thu 01:15:27 PM 36.5622 -119.0783 168° South 431 496 39,000  Level Oakland Center
Thu 01:16:29 PM 36.4194 -119.0400 168° South 435 501 39,000  Level Oakland Center
Thu 01:17:30 PM 36.3025 -119.0125 169° South 433 498 39,000  Level Oakland Center
Thu 01:18:32 PM 36.1858 -118.9844 169° South 430 495 39,000  Level Oakland Center
Thu 01:19:39 PM 36.0658 -118.9528 168° South 431 496 39,000  Level Los Angeles Center
Thu 01:20:41 PM 35.9233 -118.9169 168° South 432 497 39,000  Level Los Angeles Center
Thu 01:21:44 PM 35.8036 -118.8883 169° South 433 498 39,000  Level Los Angeles Center
Thu 01:22:46 PM 35.6847 -118.8583 168° South 434 499 39,000  Level Los Angeles Center
Thu 01:24:50 PM 35.4478 -118.7992 169° South 433 498 39,000  Level Los Angeles Center
Thu 01:25:52 PM 35.3289 -118.7697 169° South 433 498 39,000  Level Los Angeles Center
Thu 01:26:54 PM 35.1864 -118.7342 168° South 433 498 39,000  Level Los Angeles Center
Thu 01:28:50 PM 34.9742 -118.6831 169° South 433 498 39,000  Level Oakland Center
Thu 01:30:00 PM 34.8417 -118.6531 169° South 431 496 39,000  Level Los Angeles Center
Thu 01:31:03 PM 34.7006 -118.6175 168° South 430 495 39,000  Level Los Angeles Center
Thu 01:33:07 PM 34.4639 -118.5619 169° South 433 498 39,000  Level Los Angeles Center
Thu 01:34:09 PM 34.3486 -118.5167 162° South 436 502 39,000  Level Los Angeles Center
Thu 01:35:11 PM 34.2439 -118.4325 146° Southeast 445 512 39,000  Level Los Angeles Center
Thu 01:36:13 PM 34.1386 -118.3494 147° Southeast 449 517 39,000 -2,084 Level Los Angeles Center
Thu 01:40:22 PM 33.6847 -117.9936 134° Southeast 452 520 28,200 -2,508 Descending Los Angeles Center
Thu 01:41:24 PM 33.5844 -117.9167 147° Southeast 434 499 26,000 -2,175 Descending Los Angeles Center
Thu 01:43:13 PM 33.4167 -117.7667 134° Southeast 394 453 22,000 -2,166 Descending Southern California TRACON
Thu 01:44:13 PM 33.3333 -117.6833 140° Southeast 385 443 19,900 -2,000 Descending Southern California TRACON
Thu 01:45:00 PM 33.3763 -117.7162 134° Southeast  Level FlightAware Approximate
Thu 01:45:19 PM 33.2667 -117.5833 129° Southeast 375 432 17,800  Level Southern California TRACON
Thu 01:46:19 PM 33.1833 -117.5000 140° Southeast 366 421 15,800 -2,050 Descending Southern California TRACON
Thu 01:47:19 PM 33.1000 -117.4333 146° Southeast 347 399 13,700 -1,899 Descending Southern California TRACON
Thu 01:48:38 PM 33.0053 -117.3636 148° Southeast 346 398 11,400 -1,650 Descending Los Angeles Center
Thu 01:49:19 PM 32.9500 -117.3167 145° Southeast 321 369 10,400 -1,152 Descending Southern California TRACON
Thu 01:50:43 PM 32.8644 -117.2500 147° Southeast 297 342 9,000 -1,151 Descending Los Angeles Center
Thu 01:51:45 PM 32.8011 -117.1736 135° Southeast 278 320 7,600 -823 Descending Los Angeles Center
Thu 01:52:47 PM 32.7739 -117.1033 115° Southeast 256 295 7,300 -653 Descending Los Angeles Center
Thu 01:53:26 PM 32.7667 -117.0667 235° Southwest 169 194 6,500 -1,576 Descending Southern California TRACON
Thu 01:54:00 PM 32.7333 -117.1833 235° Southwest  Level FlightAware Approximate
Thu 01:54:26 PM 32.7333 -117.0333 140° Southeast 176 203 4,700  Level Southern California TRACON
Thu 01:55:20 PM 32.7000 -117.0667 220° Southwest 182 209 3,100 -1,650 Descending Southern California TRACON
Thu 01:56:26 PM 32.7167 -117.1167 292° West 161 185 1,400 -1,545 Descending Southern California TRACON
Thu 01:58:00 PM 32.7333 -117.1833 289° West  Level FlightAware Approximate
Thu 02:05:00 PM 32.7336 -117.1897 289° West  Level Estimated
Thu 02:06:00 PM 32.7336 -117.1897 161° South  Level Estimated
Thu 02:07:00 PM 32.7336 -117.1897 289° West  Level Estimated

Login

Don't have an account? Register now (free) for customized features, flight alerts, and more!